VOE3AB LIEE-GMMN
Flight info
| Callsign | VOE3AB |
|---|---|
| Flight time | 1h 54m |
| Altitude | 31000 |
| Route | KOVAS DCT XATOS DCT REQIN UM986 ZEM/N0446F320 UM986 ALR UG26 CHE UA411 FES UR975 SADIC |
| Aircraft | MD88/M-SDFGIRWY/C |
Departure
| Time | 2026-04-27 22:02 |
|---|---|
| Airport | Cagliari Elmas Airport (LIEE) |
Arrival
| Time | 2026-04-27 23:56 |
|---|---|
| Airport | Mohammed V International Airport (GMMN) |
| Time | Latitude | Longitude | Altitude | Speed | Heading |
|---|---|---|---|---|---|
| 2026-04-27 22:02 | 39.44973 | 8.92632 | 16889 ft | 372 kts | 21° |
| 2026-04-27 22:02 | 39.47254 | 8.94236 | 17428 ft | 376 kts | 29° |
| 2026-04-27 22:02 | 39.49548 | 8.95930 | 17954 ft | 379 kts | 25° |
| 2026-04-27 22:02 | 39.52057 | 8.96853 | 18435 ft | 379 kts | 3° |
| 2026-04-27 22:03 | 39.54682 | 8.96597 | 18930 ft | 380 kts | 344° |
| 2026-04-27 22:03 | 39.57080 | 8.95204 | 19416 ft | 380 kts | 324° |
| 2026-04-27 22:03 | 39.58967 | 8.92846 | 19890 ft | 382 kts | 304° |
| 2026-04-27 22:03 | 39.60134 | 8.89802 | 20324 ft | 384 kts | 285° |
| 2026-04-27 22:04 | 39.60428 | 8.86360 | 20881 ft | 383 kts | 265° |
| 2026-04-27 22:04 | 39.59882 | 8.82982 | 21343 ft | 386 kts | 255° |
| 2026-04-27 22:04 | 39.59179 | 8.79642 | 21888 ft | 386 kts | 254° |
| 2026-04-27 22:04 | 39.58449 | 8.76303 | 22342 ft | 389 kts | 254° |
| 2026-04-27 22:05 | 39.57708 | 8.72954 | 22814 ft | 391 kts | 254° |
| 2026-04-27 22:05 | 39.56945 | 8.69547 | 23280 ft | 393 kts | 254° |
| 2026-04-27 22:05 | 39.56187 | 8.66179 | 23759 ft | 394 kts | 255° |
| 2026-04-27 22:05 | 39.55420 | 8.62780 | 24154 ft | 397 kts | 255° |
| 2026-04-27 22:06 | 39.54635 | 8.59300 | 24545 ft | 401 kts | 255° |
| 2026-04-27 22:06 | 39.53850 | 8.55840 | 24965 ft | 402 kts | 255° |
| 2026-04-27 22:06 | 39.53072 | 8.52413 | 25399 ft | 403 kts | 255° |
| 2026-04-27 22:06 | 39.52274 | 8.48889 | 25730 ft | 407 kts | 255° |
| 2026-04-27 22:07 | 39.51484 | 8.45421 | 26137 ft | 408 kts | 256° |
| 2026-04-27 22:07 | 39.50676 | 8.41858 | 26514 ft | 410 kts | 256° |
| 2026-04-27 22:07 | 39.49879 | 8.38339 | 26897 ft | 412 kts | 256° |
| 2026-04-27 22:07 | 39.49073 | 8.34790 | 27224 ft | 414 kts | 255° |
| 2026-04-27 22:08 | 39.48260 | 8.31195 | 27718 ft | 413 kts | 256° |
| 2026-04-27 22:08 | 39.47456 | 8.27637 | 28178 ft | 412 kts | 256° |
| 2026-04-27 22:08 | 39.46658 | 8.24108 | 28681 ft | 410 kts | 256° |
| 2026-04-27 22:08 | 39.45863 | 8.20584 | 29119 ft | 410 kts | 256° |
| 2026-04-27 22:09 | 39.45068 | 8.17052 | 29555 ft | 406 kts | 256° |
| 2026-04-27 22:09 | 39.44304 | 8.13660 | 30039 ft | 394 kts | 257° |
| 2026-04-27 22:09 | 39.43542 | 8.10265 | 30386 ft | 396 kts | 257° |
| 2026-04-27 22:09 | 39.42773 | 8.06827 | 30640 ft | 399 kts | 257° |
| 2026-04-27 22:10 | 39.42003 | 8.03390 | 30875 ft | 402 kts | 257° |
| 2026-04-27 22:10 | 39.41481 | 8.01057 | 31037 ft | 405 kts | 257° |
| 2026-04-27 22:10 | 39.40435 | 7.96374 | 31078 ft | 415 kts | 257° |
| 2026-04-27 22:11 | 39.38836 | 7.89218 | 31071 ft | 411 kts | 257° |
| 2026-04-27 22:11 | 39.37279 | 7.82220 | 31072 ft | 404 kts | 257° |
| 2026-04-27 22:12 | 39.35685 | 7.75234 | 31074 ft | 406 kts | 256° |
| 2026-04-27 22:12 | 39.34043 | 7.68263 | 31072 ft | 408 kts | 256° |
| 2026-04-27 22:13 | 39.32381 | 7.61256 | 31069 ft | 408 kts | 256° |
| 2026-04-27 22:13 | 39.30718 | 7.54265 | 31072 ft | 408 kts | 256° |
| 2026-04-27 22:14 | 39.29069 | 7.47331 | 31070 ft | 408 kts | 256° |
| 2026-04-27 22:14 | 39.27403 | 7.40324 | 31072 ft | 408 kts | 256° |
| 2026-04-27 22:15 | 39.25756 | 7.33382 | 31070 ft | 408 kts | 256° |
| 2026-04-27 22:15 | 39.24100 | 7.26387 | 31075 ft | 409 kts | 256° |
| 2026-04-27 22:16 | 39.22445 | 7.19386 | 31072 ft | 409 kts | 256° |
| 2026-04-27 22:16 | 39.20793 | 7.12375 | 31073 ft | 409 kts | 256° |
| 2026-04-27 22:17 | 39.19152 | 7.05401 | 31072 ft | 408 kts | 256° |
| 2026-04-27 22:17 | 39.17516 | 6.98428 | 31071 ft | 408 kts | 256° |
| 2026-04-27 22:18 | 39.15877 | 6.91425 | 31072 ft | 409 kts | 256° |
| 2026-04-27 22:18 | 39.14254 | 6.84465 | 31072 ft | 408 kts | 256° |
| 2026-04-27 22:19 | 39.12621 | 6.77446 | 31072 ft | 409 kts | 256° |
| 2026-04-27 22:19 | 39.10938 | 6.70474 | 31071 ft | 410 kts | 255° |
| 2026-04-27 22:20 | 39.09232 | 6.63473 | 31073 ft | 411 kts | 255° |
| 2026-04-27 22:20 | 39.07536 | 6.56517 | 31070 ft | 410 kts | 255° |
| 2026-04-27 22:21 | 39.05829 | 6.49520 | 31069 ft | 410 kts | 255° |
| 2026-04-27 22:21 | 39.04135 | 6.42560 | 31069 ft | 410 kts | 255° |
| 2026-04-27 22:22 | 39.02437 | 6.35567 | 31068 ft | 412 kts | 255° |
| 2026-04-27 22:22 | 39.00732 | 6.28519 | 31069 ft | 413 kts | 252° |
| 2026-04-27 22:23 | 38.97911 | 6.22124 | 31075 ft | 420 kts | 233° |
| 2026-04-27 22:23 | 38.93737 | 6.16827 | 31073 ft | 423 kts | 225° |
| 2026-04-27 22:24 | 38.89467 | 6.11637 | 31072 ft | 422 kts | 226° |
| 2026-04-27 22:24 | 38.85239 | 6.06451 | 31064 ft | 421 kts | 226° |
| 2026-04-27 22:25 | 38.81045 | 6.01278 | 31062 ft | 420 kts | 226° |
| 2026-04-27 22:25 | 38.76855 | 5.96096 | 31059 ft | 420 kts | 227° |
| 2026-04-27 22:26 | 38.72652 | 5.90886 | 31056 ft | 420 kts | 227° |
| 2026-04-27 22:26 | 38.68471 | 5.85696 | 31053 ft | 418 kts | 227° |
| 2026-04-27 22:27 | 38.64327 | 5.80549 | 31054 ft | 417 kts | 227° |
| 2026-04-27 22:27 | 38.60167 | 5.75374 | 31056 ft | 418 kts | 227° |
| 2026-04-27 22:28 | 38.56013 | 5.70208 | 31047 ft | 416 kts | 227° |
| 2026-04-27 22:28 | 38.51870 | 5.65053 | 31046 ft | 415 kts | 227° |
| 2026-04-27 22:29 | 38.47764 | 5.59938 | 31044 ft | 415 kts | 228° |
| 2026-04-27 22:29 | 38.43627 | 5.54779 | 31047 ft | 415 kts | 228° |
| 2026-04-27 22:30 | 38.39504 | 5.49637 | 31044 ft | 414 kts | 228° |
| 2026-04-27 22:30 | 38.35412 | 5.44565 | 31034 ft | 413 kts | 227° |
| 2026-04-27 22:31 | 38.31284 | 5.39512 | 31037 ft | 413 kts | 227° |
| 2026-04-27 22:31 | 38.27146 | 5.34461 | 31043 ft | 413 kts | 227° |
| 2026-04-27 22:32 | 38.22989 | 5.29392 | 31042 ft | 413 kts | 227° |
| 2026-04-27 22:32 | 38.18840 | 5.24334 | 31035 ft | 412 kts | 227° |
| 2026-04-27 22:33 | 38.14722 | 5.19313 | 31033 ft | 410 kts | 227° |
| 2026-04-27 22:33 | 38.10640 | 5.14334 | 31032 ft | 410 kts | 227° |
| 2026-04-27 22:34 | 38.06521 | 5.09307 | 31034 ft | 409 kts | 227° |
| 2026-04-27 22:34 | 38.02448 | 5.04335 | 31034 ft | 409 kts | 227° |
| 2026-04-27 22:35 | 37.98345 | 4.99320 | 31025 ft | 409 kts | 227° |
| 2026-04-27 22:35 | 37.94258 | 4.94357 | 31030 ft | 409 kts | 227° |
| 2026-04-27 22:36 | 37.90151 | 4.89395 | 31022 ft | 409 kts | 227° |
| 2026-04-27 22:36 | 37.86027 | 4.84426 | 31025 ft | 409 kts | 227° |
| 2026-04-27 22:37 | 37.81902 | 4.79460 | 31023 ft | 409 kts | 227° |
| 2026-04-27 22:37 | 37.77810 | 4.74536 | 31020 ft | 408 kts | 227° |
| 2026-04-27 22:38 | 37.73698 | 4.69589 | 31022 ft | 408 kts | 227° |
| 2026-04-27 22:38 | 37.69593 | 4.64647 | 31021 ft | 408 kts | 227° |
| 2026-04-27 22:39 | 37.65513 | 4.59736 | 31016 ft | 407 kts | 227° |
| 2026-04-27 22:39 | 37.61411 | 4.54792 | 31017 ft | 408 kts | 227° |
| 2026-04-27 22:40 | 37.57318 | 4.49860 | 31013 ft | 408 kts | 227° |
| 2026-04-27 22:40 | 37.53252 | 4.44958 | 31003 ft | 407 kts | 227° |
| 2026-04-27 22:41 | 37.49165 | 4.40028 | 31002 ft | 406 kts | 227° |
| 2026-04-27 22:41 | 37.45088 | 4.35108 | 31008 ft | 407 kts | 227° |
| 2026-04-27 22:42 | 37.40996 | 4.30165 | 31012 ft | 407 kts | 227° |
| 2026-04-27 22:42 | 37.36920 | 4.25272 | 31011 ft | 407 kts | 226° |
| 2026-04-27 22:43 | 37.32803 | 4.20386 | 31002 ft | 407 kts | 226° |
| 2026-04-27 22:43 | 37.28869 | 4.15307 | 30992 ft | 402 kts | 237° |
| 2026-04-27 22:43 | 37.27638 | 4.12219 | 31015 ft | 397 kts | 252° |
| 2026-04-27 22:44 | 37.26654 | 4.08984 | 31002 ft | 399 kts | 250° |
| 2026-04-27 22:44 | 37.24542 | 4.02583 | 30993 ft | 400 kts | 248° |
| 2026-04-27 22:45 | 37.22293 | 3.96191 | 30993 ft | 399 kts | 248° |
| 2026-04-27 22:45 | 37.19992 | 3.89867 | 30992 ft | 400 kts | 247° |
| 2026-04-27 22:46 | 37.17671 | 3.83601 | 30988 ft | 399 kts | 246° |
| 2026-04-27 22:46 | 37.15313 | 3.77298 | 30992 ft | 400 kts | 246° |
| 2026-04-27 22:47 | 37.12941 | 3.70989 | 30990 ft | 400 kts | 246° |
| 2026-04-27 22:47 | 37.10567 | 3.64689 | 30987 ft | 400 kts | 246° |
| 2026-04-27 22:48 | 37.08205 | 3.58429 | 30990 ft | 400 kts | 246° |
| 2026-04-27 22:48 | 37.05839 | 3.52151 | 30985 ft | 400 kts | 246° |
| 2026-04-27 22:49 | 37.03468 | 3.45856 | 30983 ft | 399 kts | 246° |
| 2026-04-27 22:49 | 37.01106 | 3.39579 | 30984 ft | 400 kts | 246° |
| 2026-04-27 22:50 | 36.98757 | 3.33328 | 30991 ft | 399 kts | 245° |
| 2026-04-27 22:50 | 36.96411 | 3.27081 | 30990 ft | 400 kts | 245° |
| 2026-04-27 22:51 | 36.94032 | 3.20742 | 30993 ft | 399 kts | 245° |
| 2026-04-27 22:51 | 36.91631 | 3.14533 | 30993 ft | 400 kts | 245° |
| 2026-04-27 22:52 | 36.89204 | 3.08299 | 30997 ft | 400 kts | 244° |
| 2026-04-27 22:52 | 36.86760 | 3.02041 | 31001 ft | 399 kts | 245° |
| 2026-04-27 22:53 | 36.84345 | 2.95862 | 30998 ft | 400 kts | 245° |
| 2026-04-27 22:53 | 36.81905 | 2.89622 | 30998 ft | 399 kts | 245° |
| 2026-04-27 22:54 | 36.79475 | 2.83403 | 30995 ft | 400 kts | 245° |
| 2026-04-27 22:54 | 36.77049 | 2.77189 | 30992 ft | 400 kts | 245° |
| 2026-04-27 22:55 | 36.74627 | 2.70978 | 30989 ft | 399 kts | 245° |
| 2026-04-27 22:55 | 36.72202 | 2.64752 | 30988 ft | 400 kts | 245° |
| 2026-04-27 22:56 | 36.69784 | 2.58534 | 30984 ft | 400 kts | 245° |
| 2026-04-27 22:56 | 36.67366 | 2.52307 | 30983 ft | 399 kts | 245° |
| 2026-04-27 22:57 | 36.64953 | 2.46088 | 30988 ft | 399 kts | 245° |
| 2026-04-27 22:57 | 36.62549 | 2.39886 | 30990 ft | 399 kts | 245° |
| 2026-04-27 22:58 | 36.60152 | 2.33689 | 30993 ft | 400 kts | 244° |
| 2026-04-27 22:58 | 36.57753 | 2.27488 | 31002 ft | 399 kts | 244° |
| 2026-04-27 22:59 | 36.55295 | 2.21317 | 31006 ft | 399 kts | 244° |
| 2026-04-27 22:59 | 36.52832 | 2.15167 | 31011 ft | 399 kts | 243° |
| 2026-04-27 23:00 | 36.49128 | 2.05956 | 31012 ft | 398 kts | 243° |
| 2026-04-27 23:00 | 36.46654 | 1.99808 | 31011 ft | 399 kts | 243° |
| 2026-04-27 23:01 | 36.44176 | 1.93651 | 31015 ft | 399 kts | 243° |
| 2026-04-27 23:01 | 36.41705 | 1.87501 | 31005 ft | 398 kts | 243° |
| 2026-04-27 23:02 | 36.39247 | 1.81385 | 30996 ft | 399 kts | 243° |
| 2026-04-27 23:02 | 36.36779 | 1.75236 | 30996 ft | 399 kts | 243° |
| 2026-04-27 23:03 | 36.34304 | 1.69057 | 30982 ft | 399 kts | 243° |
| 2026-04-27 23:03 | 36.31853 | 1.62936 | 30982 ft | 398 kts | 243° |
| 2026-04-27 23:04 | 36.29389 | 1.56772 | 30980 ft | 399 kts | 243° |
| 2026-04-27 23:04 | 36.26940 | 1.50638 | 30980 ft | 399 kts | 243° |
| 2026-04-27 23:05 | 36.24499 | 1.44515 | 30979 ft | 400 kts | 243° |
| 2026-04-27 23:05 | 36.22033 | 1.38325 | 30980 ft | 400 kts | 243° |
| 2026-04-27 23:06 | 36.19549 | 1.32165 | 30979 ft | 399 kts | 242° |
| 2026-04-27 23:06 | 36.17055 | 1.26098 | 30981 ft | 398 kts | 242° |
| 2026-04-27 23:07 | 36.14540 | 1.20005 | 30968 ft | 399 kts | 242° |
| 2026-04-27 23:07 | 36.12008 | 1.13889 | 30969 ft | 398 kts | 242° |
| 2026-04-27 23:08 | 36.09484 | 1.07790 | 30956 ft | 400 kts | 242° |
| 2026-04-27 23:08 | 36.06972 | 1.01720 | 30938 ft | 399 kts | 242° |
| 2026-04-27 23:09 | 36.04454 | 0.95633 | 30934 ft | 399 kts | 242° |
| 2026-04-27 23:09 | 36.01936 | 0.89538 | 30932 ft | 400 kts | 242° |
| 2026-04-27 23:10 | 35.99407 | 0.83411 | 30927 ft | 400 kts | 242° |
| 2026-04-27 23:10 | 35.96890 | 0.77307 | 30923 ft | 399 kts | 242° |
| 2026-04-27 23:11 | 35.94383 | 0.71222 | 30923 ft | 399 kts | 242° |
| 2026-04-27 23:11 | 35.91875 | 0.65124 | 30925 ft | 400 kts | 242° |
| 2026-04-27 23:12 | 35.89383 | 0.59060 | 30924 ft | 399 kts | 242° |
| 2026-04-27 23:12 | 35.86871 | 0.52939 | 30926 ft | 399 kts | 242° |
| 2026-04-27 23:13 | 35.84378 | 0.46855 | 30927 ft | 399 kts | 242° |
| 2026-04-27 23:13 | 35.81848 | 0.40749 | 30922 ft | 400 kts | 242° |
| 2026-04-27 23:14 | 35.79386 | 0.34677 | 30916 ft | 400 kts | 248° |
| 2026-04-27 23:14 | 35.77368 | 0.28264 | 30921 ft | 400 kts | 246° |
| 2026-04-27 23:15 | 35.73629 | 0.16659 | 30916 ft | 401 kts | 246° |
| 2026-04-27 23:15 | 35.69528 | 0.04041 | 30921 ft | 400 kts | 246° |
| 2026-04-27 23:16 | 35.65400 | -0.08646 | 30921 ft | 401 kts | 246° |
| 2026-04-27 23:16 | 35.61263 | -0.21386 | 30934 ft | 401 kts | 246° |
| 2026-04-27 23:17 | 35.57162 | -0.34051 | 30944 ft | 402 kts | 246° |
| 2026-04-27 23:17 | 35.53055 | -0.46776 | 30949 ft | 402 kts | 246° |
| 2026-04-27 23:18 | 35.48954 | -0.59516 | 30946 ft | 403 kts | 246° |
| 2026-04-27 23:18 | 35.44731 | -0.72172 | 30953 ft | 403 kts | 245° |
| 2026-04-27 23:19 | 35.40458 | -0.84878 | 30949 ft | 404 kts | 245° |
| 2026-04-27 23:19 | 35.36177 | -0.97600 | 30943 ft | 404 kts | 245° |
| 2026-04-27 23:20 | 35.31924 | -1.10274 | 30945 ft | 405 kts | 245° |
| 2026-04-27 23:20 | 35.27666 | -1.22996 | 30946 ft | 406 kts | 245° |
| 2026-04-27 23:21 | 35.23391 | -1.35806 | 30938 ft | 408 kts | 246° |
| 2026-04-27 23:21 | 35.19128 | -1.48618 | 30935 ft | 409 kts | 246° |
| 2026-04-27 23:22 | 35.14191 | -1.63180 | 30926 ft | 410 kts | 245° |
| 2026-04-27 23:22 | 35.07554 | -1.82313 | 30932 ft | 411 kts | 245° |
| 2026-04-27 23:23 | 35.00900 | -2.01529 | 30923 ft | 413 kts | 245° |
| 2026-04-27 23:23 | 34.94217 | -2.20888 | 30929 ft | 416 kts | 245° |
| 2026-04-27 23:24 | 34.87546 | -2.40329 | 30946 ft | 417 kts | 245° |
| 2026-04-27 23:24 | 34.80768 | -2.59702 | 30969 ft | 417 kts | 245° |
| 2026-04-27 23:25 | 34.73878 | -2.78982 | 30955 ft | 417 kts | 244° |
| 2026-04-27 23:25 | 34.66975 | -2.98339 | 30967 ft | 420 kts | 245° |
| 2026-04-27 23:26 | 34.60047 | -3.17852 | 30964 ft | 422 kts | 245° |
| 2026-04-27 23:26 | 34.53120 | -3.37440 | 30965 ft | 424 kts | 245° |
| 2026-04-27 23:27 | 34.46005 | -3.57018 | 30988 ft | 426 kts | 244° |
| 2026-04-27 23:27 | 34.38807 | -3.76596 | 30972 ft | 426 kts | 244° |
| 2026-04-27 23:28 | 34.31608 | -3.96224 | 30970 ft | 428 kts | 244° |
| 2026-04-27 23:28 | 34.24437 | -4.15859 | 30955 ft | 428 kts | 245° |
| 2026-04-27 23:29 | 34.17281 | -4.35504 | 30943 ft | 428 kts | 244° |
| 2026-04-27 23:29 | 34.09956 | -4.54983 | 30925 ft | 427 kts | 244° |
| 2026-04-27 23:30 | 34.02634 | -4.74471 | 30917 ft | 426 kts | 244° |
| 2026-04-27 23:30 | 33.95375 | -4.93881 | 30899 ft | 426 kts | 245° |
| 2026-04-27 23:31 | 33.89601 | -5.13927 | 30891 ft | 428 kts | 264° |
| 2026-04-27 23:31 | 33.87660 | -5.35146 | 30924 ft | 429 kts | 261° |
| 2026-04-27 23:32 | 33.84782 | -5.56279 | 30922 ft | 424 kts | 259° |
| 2026-04-27 23:32 | 33.81923 | -5.76429 | 30894 ft | 420 kts | 259° |
| 2026-04-27 23:33 | 33.80569 | -5.85450 | 30878 ft | 420 kts | 259° |
| 2026-04-27 23:33 | 33.79512 | -5.92462 | 30883 ft | 437 kts | 259° |
| 2026-04-27 23:34 | 33.78431 | -5.99639 | 30872 ft | 447 kts | 259° |
| 2026-04-27 23:34 | 33.77343 | -6.06881 | 30883 ft | 439 kts | 259° |
| 2026-04-27 23:35 | 33.76277 | -6.13976 | 30865 ft | 438 kts | 259° |
| 2026-04-27 23:35 | 33.75220 | -6.21044 | 30871 ft | 439 kts | 259° |
| 2026-04-27 23:36 | 33.74692 | -6.24593 | 30649 ft | 434 kts | 259° |
| 2026-04-27 23:36 | 33.74172 | -6.28101 | 30196 ft | 422 kts | 259° |
| 2026-04-27 23:36 | 33.73672 | -6.31472 | 29780 ft | 411 kts | 259° |
| 2026-04-27 23:36 | 33.73182 | -6.34761 | 29443 ft | 407 kts | 258° |
| 2026-04-27 23:37 | 33.72674 | -6.38126 | 28838 ft | 416 kts | 258° |
| 2026-04-27 23:37 | 33.72165 | -6.41491 | 28260 ft | 419 kts | 258° |
| 2026-04-27 23:37 | 33.71651 | -6.44890 | 27676 ft | 417 kts | 258° |
| 2026-04-27 23:37 | 33.71146 | -6.48239 | 27093 ft | 413 kts | 258° |
| 2026-04-27 23:38 | 33.70642 | -6.51568 | 26522 ft | 408 kts | 259° |
| 2026-04-27 23:38 | 33.70147 | -6.54853 | 25970 ft | 403 kts | 259° |
| 2026-04-27 23:38 | 33.69656 | -6.58107 | 25551 ft | 398 kts | 258° |
| 2026-04-27 23:38 | 33.69142 | -6.61347 | 24983 ft | 401 kts | 258° |
| 2026-04-27 23:39 | 33.68623 | -6.64610 | 24405 ft | 401 kts | 258° |
| 2026-04-27 23:39 | 33.68111 | -6.67840 | 23828 ft | 400 kts | 258° |
| 2026-04-27 23:39 | 33.67603 | -6.71056 | 23257 ft | 398 kts | 258° |
| 2026-04-27 23:39 | 33.67097 | -6.74244 | 22712 ft | 394 kts | 258° |
| 2026-04-27 23:40 | 33.66591 | -6.77442 | 22162 ft | 391 kts | 258° |
| 2026-04-27 23:40 | 33.66092 | -6.80591 | 21633 ft | 388 kts | 258° |
| 2026-04-27 23:40 | 33.65599 | -6.83716 | 21108 ft | 386 kts | 259° |
| 2026-04-27 23:40 | 33.64928 | -6.86727 | 20592 ft | 382 kts | 244° |
| 2026-04-27 23:41 | 33.63469 | -6.89335 | 20171 ft | 376 kts | 225° |
| 2026-04-27 23:41 | 33.61425 | -6.91193 | 19665 ft | 375 kts | 206° |
| 2026-04-27 23:41 | 33.58998 | -6.92211 | 19174 ft | 373 kts | 193° |
| 2026-04-27 23:41 | 33.56536 | -6.93053 | 18664 ft | 372 kts | 194° |
| 2026-04-27 23:42 | 33.54091 | -6.93911 | 18147 ft | 368 kts | 195° |
| 2026-04-27 23:42 | 33.51670 | -6.94785 | 17631 ft | 364 kts | 194° |
| 2026-04-27 23:42 | 33.49310 | -6.95655 | 17126 ft | 359 kts | 195° |
| 2026-04-27 23:42 | 33.46977 | -6.96530 | 16644 ft | 352 kts | 194° |
| 2026-04-27 23:43 | 33.44671 | -6.97403 | 16153 ft | 341 kts | 195° |
| 2026-04-27 23:43 | 33.42470 | -6.98242 | 15678 ft | 334 kts | 194° |
| 2026-04-27 23:43 | 33.40300 | -6.99073 | 15229 ft | 330 kts | 194° |
| 2026-04-27 23:43 | 33.38149 | -6.99901 | 14803 ft | 327 kts | 195° |
| 2026-04-27 23:44 | 33.36019 | -7.00727 | 14345 ft | 325 kts | 195° |
| 2026-04-27 23:44 | 33.33882 | -7.01558 | 13912 ft | 327 kts | 195° |
| 2026-04-27 23:44 | 33.31767 | -7.02382 | 13481 ft | 324 kts | 195° |
| 2026-04-27 23:44 | 33.29636 | -7.03212 | 13045 ft | 320 kts | 194° |
| 2026-04-27 23:45 | 33.27564 | -7.04022 | 12617 ft | 313 kts | 195° |
| 2026-04-27 23:45 | 33.25540 | -7.04814 | 12194 ft | 304 kts | 195° |
| 2026-04-27 23:45 | 33.24625 | -7.05166 | 12264 ft | 301 kts | 197° |
| 2026-04-27 23:45 | 33.22677 | -7.05923 | 11793 ft | 295 kts | 199° |
| 2026-04-27 23:46 | 33.20747 | -7.06674 | 11339 ft | 290 kts | 197° |
| 2026-04-27 23:46 | 33.19008 | -7.07744 | 10896 ft | 284 kts | 220° |
| 2026-04-27 23:46 | 33.17789 | -7.09483 | 10575 ft | 276 kts | 242° |
| 2026-04-27 23:46 | 33.17240 | -7.11600 | 10237 ft | 271 kts | 262° |
| 2026-04-27 23:47 | 33.16975 | -7.13811 | 9896 ft | 271 kts | 261° |
| 2026-04-27 23:47 | 33.16695 | -7.16019 | 9554 ft | 272 kts | 261° |
| 2026-04-27 23:47 | 33.16404 | -7.18215 | 9214 ft | 274 kts | 260° |
| 2026-04-27 23:47 | 33.16103 | -7.20420 | 8868 ft | 273 kts | 260° |
| 2026-04-27 23:48 | 33.15793 | -7.22632 | 8521 ft | 272 kts | 260° |
| 2026-04-27 23:48 | 33.15480 | -7.24827 | 8175 ft | 270 kts | 260° |
| 2026-04-27 23:48 | 33.15163 | -7.27009 | 7861 ft | 267 kts | 259° |
| 2026-04-27 23:48 | 33.15011 | -7.29152 | 7537 ft | 267 kts | 267° |
| 2026-04-27 23:49 | 33.14920 | -7.31352 | 7182 ft | 267 kts | 267° |
| 2026-04-27 23:49 | 33.14834 | -7.33523 | 6831 ft | 267 kts | 266° |
| 2026-04-27 23:49 | 33.14747 | -7.35704 | 6479 ft | 265 kts | 267° |
| 2026-04-27 23:49 | 33.14657 | -7.37881 | 6119 ft | 264 kts | 267° |
| 2026-04-27 23:50 | 33.14568 | -7.40021 | 5786 ft | 262 kts | 266° |
| 2026-04-27 23:50 | 33.14479 | -7.42161 | 5448 ft | 260 kts | 267° |
| 2026-04-27 23:50 | 33.14391 | -7.44319 | 5109 ft | 260 kts | 266° |
| 2026-04-27 23:50 | 33.14301 | -7.46438 | 4778 ft | 259 kts | 266° |
| 2026-04-27 23:51 | 33.14220 | -7.48556 | 4438 ft | 258 kts | 274° |
| 2026-04-27 23:51 | 33.14774 | -7.50510 | 4147 ft | 255 kts | 304° |
| 2026-04-27 23:51 | 33.16004 | -7.51952 | 4025 ft | 252 kts | 329° |
| 2026-04-27 23:51 | 33.17614 | -7.52652 | 3940 ft | 241 kts | 348° |
| 2026-04-27 23:52 | 33.19136 | -7.53106 | 3971 ft | 214 kts | 347° |
| 2026-04-27 23:52 | 33.20562 | -7.53473 | 3683 ft | 209 kts | 348° |
| 2026-04-27 23:52 | 33.21920 | -7.53824 | 3423 ft | 192 kts | 348° |
| 2026-04-27 23:52 | 33.23149 | -7.54163 | 3180 ft | 170 kts | 344° |
| 2026-04-27 23:53 | 33.24205 | -7.54532 | 2927 ft | 151 kts | 345° |
| 2026-04-27 23:53 | 33.25167 | -7.54854 | 2688 ft | 140 kts | 344° |
| 2026-04-27 23:53 | 33.26099 | -7.55173 | 2495 ft | 141 kts | 344° |
| 2026-04-27 23:53 | 33.27040 | -7.55493 | 2334 ft | 145 kts | 345° |
| 2026-04-27 23:54 | 33.28031 | -7.55812 | 2165 ft | 146 kts | 344° |
| 2026-04-27 23:54 | 33.29012 | -7.56144 | 2004 ft | 148 kts | 344° |
| 2026-04-27 23:54 | 33.29574 | -7.56332 | 1941 ft | 141 kts | 345° |
| 2026-04-27 23:54 | 33.30478 | -7.56649 | 1709 ft | 141 kts | 344° |
| 2026-04-27 23:55 | 33.31423 | -7.56975 | 1500 ft | 141 kts | 345° |
| 2026-04-27 23:55 | 33.32354 | -7.57280 | 1303 ft | 139 kts | 343° |
| 2026-04-27 23:55 | 33.33277 | -7.57598 | 1119 ft | 139 kts | 343° |
| 2026-04-27 23:55 | 33.34213 | -7.57918 | 934 ft | 145 kts | 345° |
| 2026-04-27 23:56 | 33.35157 | -7.58237 | 743 ft | 139 kts | 344° |
| 2026-04-27 23:56 | 33.36023 | -7.58535 | 662 ft | 117 kts | 344° |
| 2026-04-27 23:56 | 33.36631 | -7.58742 | 661 ft | 67 kts | 344° |
| 2026-04-27 23:56 | 33.36957 | -7.58853 | 661 ft | 48 kts | 344° |
| 2026-04-27 23:57 | 33.37264 | -7.58958 | 661 ft | 44 kts | 344° |
| 2026-04-27 23:57 | 33.37534 | -7.59050 | 661 ft | 37 kts | 344° |
| 2026-04-27 23:57 | 33.37722 | -7.59116 | 661 ft | 18 kts | 344° |
| 2026-04-27 23:57 | 33.37814 | -7.59095 | 661 ft | 14 kts | 57° |
| 2026-04-27 23:58 | 33.37845 | -7.58984 | 661 ft | 13 kts | 74° |
| 2026-04-27 23:58 | 33.37870 | -7.58880 | 661 ft | 12 kts | 74° |
| 2026-04-27 23:58 | 33.37843 | -7.58803 | 661 ft | 10 kts | 154° |